Weather at Los Angeles International Airport

Public forecast

Using degrees Fahrenheit for public forecast. Weather courtesy of forecast.io.

Current aviation weather report (METAR) for Los Angeles International Airport

Retrieved 2022/01/29 12:53 UTC (9 minutes ago):

KLAX 291253Z 07003KT 10SM SCT200 13/M10 A3012 RMK AO2 SLP198 T01281100

Aviation forecast (TAF) for Los Angeles International Airport

Retrieved 2022/01/29 12:27 UTC (35 minutes ago):

TAF KLAX 291124Z 2912/3018 04008KT P6SM SCT200 FM292000 26008KT P6SM BKN150 FM300600 VRB03KT P6SM BKN250